Time;durP1;ratioP1;P1;durP2;ratioP2;P2;SDS_P1;SDS_P2;PMS_P1;PMS_P2;Temp;Humidity;BMP_temperature;BMP_pressure;BME280_temperature;BME280_humidity;BME280_pressure;Samples;Min_cycle;Max_cycle;Signal;HPM_P1;HPM_P2
2021/10/03 00:02:29;;;;;;;4.65;2.17;;;;;;;6.62;87.98;95815.41;5108177;28;20040;-67
2021/10/03 00:04:57;;;;;;;3.40;2.15;;;;;;;6.56;88.43;95818.72;5105152;28;20500;-68
2021/10/03 00:07:24;;;;;;;3.60;2.45;;;;;;;6.54;88.49;95809.56;5125370;28;21772;-68
2021/10/03 00:09:52;;;;;;;4.55;2.28;;;;;;;6.64;88.06;95820.41;5125327;28;20031;-68
2021/10/03 00:12:21;;;;;;;4.28;2.25;;;;;;;6.59;88.22;95823.53;5125426;28;20504;-68
2021/10/03 00:14:50;;;;;;;4.55;2.28;;;;;;;6.45;88.84;95806.25;5125503;28;20042;-68
2021/10/03 00:17:17;;;;;;;3.05;1.90;;;;;;;6.53;88.21;95813.91;5125691;28;20707;-68
2021/10/03 00:19:44;;;;;;;3.78;2.70;;;;;;;6.55;88.50;95811.94;5112125;28;21520;-68
2021/10/03 00:22:11;;;;;;;4.18;2.22;;;;;;;6.62;88.09;95810.22;5105834;28;20039;-67
2021/10/03 00:24:38;;;;;;;3.60;2.13;;;;;;;6.66;87.42;95798.53;5104952;28;20032;-68
2021/10/03 00:27:05;;;;;;;3.80;2.38;;;;;;;6.72;86.94;95814.31;5108695;27;20048;-67
2021/10/03 00:29:34;;;;;;;3.53;1.95;;;;;;;6.74;86.15;95814.94;5107669;27;20043;-68
2021/10/03 00:32:03;;;;;;;5.15;2.70;;;;;;;6.73;85.31;95802.97;5108640;27;20169;-68
2021/10/03 00:34:30;;;;;;;3.67;2.30;;;;;;;6.82;84.94;95812.22;5108917;28;20063;-68
2021/10/03 00:36:57;;;;;;;3.72;2.35;;;;;;;6.70;84.66;95799.78;5105913;28;20489;-67
2021/10/03 00:39:24;;;;;;;3.65;2.28;;;;;;;6.70;84.90;95799.78;5108694;27;20109;-67
2021/10/03 00:41:51;;;;;;;5.75;2.83;;;;;;;6.62;84.58;95797.28;5108666;28;20402;-67
2021/10/03 00:44:19;;;;;;;4.32;2.40;;;;;;;6.67;84.68;95805.31;5108819;28;20047;-67
2021/10/03 00:46:46;;;;;;;2.85;2.03;;;;;;;6.56;84.61;95803.19;5108144;28;20043;-67
2021/10/03 00:49:13;;;;;;;4.15;2.63;;;;;;;6.61;84.50;95806.03;5108461;27;20052;-67
2021/10/03 00:51:40;;;;;;;3.08;1.65;;;;;;;6.57;84.35;95810.00;5111328;27;20416;-67
2021/10/03 00:54:07;;;;;;;4.45;2.40;;;;;;;6.46;84.77;95807.84;5108026;28;20550;-67
2021/10/03 00:56:34;;;;;;;3.58;2.00;;;;;;;6.43;84.93;95803.06;5106817;28;20043;-67
2021/10/03 00:59:01;;;;;;;3.30;2.53;;;;;;;6.42;84.93;95796.25;5108560;27;20044;-67
2021/10/03 01:01:28;;;;;;;3.88;2.22;;;;;;;6.28;85.00;95779.75;5108235;28;20039;-67
2021/10/03 01:03:55;;;;;;;5.43;2.10;;;;;;;6.34;85.73;95793.75;5110030;27;20778;-67
2021/10/03 01:06:22;;;;;;;3.15;2.25;;;;;;;6.27;85.58;95799.66;5123555;27;20412;-67
2021/10/03 01:08:49;;;;;;;4.15;2.05;;;;;;;6.20;86.71;95798.78;5108237;28;20558;-67
2021/10/03 01:11:16;;;;;;;3.33;2.13;;;;;;;6.18;87.84;95800.75;5108123;28;20036;-67
2021/10/03 01:13:47;;;;;;;2.83;1.65;;;;;;;6.08;87.98;95784.69;5127798;27;20047;-68
2021/10/03 01:16:15;;;;;;;5.00;1.90;;;;;;;6.13;87.81;95793.50;5112000;27;20085;-68
2021/10/03 01:18:42;;;;;;;3.80;1.85;;;;;;;6.13;87.94;95787.53;5107956;28;20040;-68
2021/10/03 01:21:09;;;;;;;4.20;2.15;;;;;;;6.10;88.08;95783.53;5121725;27;20047;-67
2021/10/03 01:23:37;;;;;;;3.75;2.03;;;;;;;6.03;88.21;95776.66;5112025;27;20063;-68
2021/10/03 01:26:05;;;;;;;3.25;1.85;;;;;;;6.01;89.02;95779.41;5123483;27;20448;-68
2021/10/03 01:28:32;;;;;;;5.38;2.40;;;;;;;5.99;89.04;95775.41;5107946;27;20062;-68
2021/10/03 01:30:59;;;;;;;3.40;1.92;;;;;;;6.00;88.87;95766.69;5106350;28;20047;-67
2021/10/03 01:33:27;;;;;;;2.80;1.70;;;;;;;5.98;89.25;95768.63;5092722;27;20706;-68
2021/10/03 01:35:55;;;;;;;2.90;1.70;;;;;;;5.96;88.88;95770.59;5118658;27;20125;-68
2021/10/03 01:38:22;;;;;;;6.13;3.47;;;;;;;5.88;89.67;95764.50;5107568;28;20051;-67
2021/10/03 01:40:50;;;;;;;3.40;2.05;;;;;;;6.00;90.27;95777.03;5107116;28;20722;-68
2021/10/03 01:43:18;;;;;;;3.05;2.05;;;;;;;5.93;90.93;95767.34;5109981;27;20048;-67
2021/10/03 01:45:47;;;;;;;6.70;1.73;;;;;;;5.98;90.00;95763.44;5127594;27;20084;-67
2021/10/03 01:48:34;;;;;;;5.63;2.05;;;;;;;6.06;90.40;95771.13;5127553;27;20050;-67
2021/10/03 01:51:08;;;;;;;4.07;2.33;;;;;;;6.15;90.02;95782.19;5127002;27;20042;-68
2021/10/03 01:53:44;;;;;;;3.30;1.83;;;;;;;6.10;90.57;95786.13;5106223;28;20058;-67
2021/10/03 01:56:13;;;;;;;7.32;1.77;;;;;;;6.09;91.31;95796.66;5125119;27;20039;-67
2021/10/03 01:58:47;;;;;;;3.83;2.42;;;;;;;6.08;90.72;95789.84;5127206;27;20054;-67
2021/10/03 02:01:18;;;;;;;5.03;2.67;;;;;;;6.14;90.70;95799.50;5127598;27;20062;-68
2021/10/03 02:03:47;;;;;;;5.82;3.30;;;;;;;6.05;91.26;95785.84;5126914;27;20051;-68
2021/10/03 02:06:14;;;;;;;5.30;3.17;;;;;;;6.09;91.96;95801.81;5110216;27;20411;-68
2021/10/03 02:08:41;;;;;;;5.80;3.67;;;;;;;5.97;92.56;95787.72;5105665;28;20039;-67
2021/10/03 02:11:08;;;;;;;5.72;3.47;;;;;;;5.89;92.76;95786.81;5106920;27;20048;-67
2021/10/03 02:13:35;;;;;;;7.80;3.25;;;;;;;5.87;92.61;95799.09;5107044;28;20043;-67
2021/10/03 02:16:02;;;;;;;7.22;3.03;;;;;;;5.75;92.65;95779.84;5107038;28;20100;-68
2021/10/03 02:18:35;;;;;;;10.02;4.05;;;;;;;5.91;92.44;95784.84;5106487;28;20416;-68
2021/10/03 02:21:04;;;;;;;10.00;3.83;;;;;;;5.83;93.35;95792.66;5111332;27;20065;-68
2021/10/03 02:23:32;;;;;;;5.85;3.60;;;;;;;5.85;93.06;95793.31;5111637;27;20107;-67
2021/10/03 02:25:59;;;;;;;8.35;4.10;;;;;;;5.88;92.49;95785.19;5105940;28;20051;-68
2021/10/03 02:28:27;;;;;;;7.18;3.40;;;;;;;5.84;91.58;95783.94;5106629;28;20376;-68
2021/10/03 02:30:57;;;;;;;5.93;3.38;;;;;;;5.81;91.10;95784.28;5106882;28;20050;-68
2021/10/03 02:33:24;;;;;;;11.02;4.53;;;;;;;5.81;90.15;95784.28;5125909;27;20058;-67
2021/10/03 02:35:52;;;;;;;4.40;2.85;;;;;;;5.80;89.68;95777.53;5107497;27;20390;-68
2021/10/03 02:38:22;;;;;;;4.35;1.98;;;;;;;5.77;88.90;95783.03;5106416;27;20100;-68
2021/10/03 02:40:51;;;;;;;4.53;2.45;;;;;;;5.68;88.70;95778.94;5106547;27;20047;-67
2021/10/03 02:43:19;;;;;;;6.22;3.13;;;;;;;5.51;90.24;95780.84;5106431;28;20044;-68
2021/10/03 02:45:52;;;;;;;4.93;2.72;;;;;;;5.39;90.78;95764.19;5106354;28;20090;-67
2021/10/03 02:48:22;;;;;;;4.35;2.40;;;;;;;5.23;91.43;95747.06;5106483;28;20039;-68
2021/10/03 02:50:50;;;;;;;4.85;2.72;;;;;;;5.34;92.31;95777.63;5115589;27;20104;-68
2021/10/03 02:53:19;;;;;;;6.43;1.95;;;;;;;5.29;92.45;95774.75;5119519;27;20046;-68
2021/10/03 02:55:46;;;;;;;3.97;2.22;;;;;;;5.29;92.06;95764.41;5115487;27;20035;-67
2021/10/03 02:58:13;;;;;;;8.65;2.63;;;;;;;5.41;91.28;95772.56;5126524;27;21177;-68
2021/10/03 03:00:41;;;;;;;6.18;2.13;;;;;;;5.36;91.06;95760.97;5126385;27;20046;-68
2021/10/03 03:03:08;;;;;;;13.48;2.67;;;;;;;5.46;90.28;95776.22;5113840;27;20047;-67
2021/10/03 03:05:36;;;;;;;3.67;2.65;;;;;;;5.43;89.40;95781.75;5110026;27;20039;-67
2021/10/03 03:08:04;;;;;;;4.10;2.63;;;;;;;5.43;89.17;95776.56;5126163;27;20050;-67
2021/10/03 03:10:32;;;;;;;3.35;2.58;;;;;;;5.43;88.98;95776.56;5104025;28;20036;-67
2021/10/03 03:13:00;;;;;;;5.72;3.90;;;;;;;5.45;88.85;95792.69;5106013;28;20048;-68
2021/10/03 03:15:26;;;;;;;6.03;2.83;;;;;;;5.26;89.17;95782.88;5106058;28;20039;-68
2021/10/03 03:17:53;;;;;;;5.80;3.10;;;;;;;5.33;89.37;95791.50;5106033;28;20044;-68
2021/10/03 03:20:20;;;;;;;7.78;3.50;;;;;;;5.07;90.05;95772.03;5119714;27;20500;-68
2021/10/03 03:22:47;;;;;;;5.93;3.35;;;;;;;5.08;90.95;95796.88;5117277;27;20047;-68
2021/10/03 03:25:15;;;;;;;10.10;3.80;;;;;;;5.08;91.37;95794.28;5118494;28;20042;-67
2021/10/03 03:27:42;;;;;;;6.55;3.25;;;;;;;5.07;91.78;95789.31;5116220;28;20040;-67
2021/10/03 03:30:11;;;;;;;10.57;3.30;;;;;;;5.07;91.28;95792.69;5113442;28;20039;-68
2021/10/03 03:32:38;;;;;;;7.95;3.05;;;;;;;5.03;90.87;95786.25;5126196;28;20031;-68
2021/10/03 03:35:07;;;;;;;5.25;3.45;;;;;;;4.86;89.92;95772.69;5125812;28;20035;-68
2021/10/03 03:37:34;;;;;;;5.10;2.72;;;;;;;4.94;88.95;95787.28;5106813;28;20474;-68
2021/10/03 03:40:01;;;;;;;5.40;2.63;;;;;;;4.81;88.88;95779.31;5106636;28;20051;-68
2021/10/03 03:42:28;;;;;;;5.55;2.80;;;;;;;4.78;88.91;95778.66;5107653;28;20040;-68
2021/10/03 03:44:55;;;;;;;6.75;3.17;;;;;;;4.70;88.52;95768.41;5125862;28;20051;-67
2021/10/03 03:47:21;;;;;;;3.83;2.67;;;;;;;4.70;88.75;95776.16;5105854;28;20035;-68
2021/10/03 03:49:51;;;;;;;4.65;2.42;;;;;;;4.67;89.06;95781.66;5105500;28;20097;-68
2021/10/03 03:52:19;;;;;;;5.45;2.53;;;;;;;4.58;88.96;95782.69;5114009;28;20096;-68
2021/10/03 03:54:46;;;;;;;4.65;2.65;;;;;;;4.49;88.63;95763.84;5125662;28;20041;-67
2021/10/03 03:57:14;;;;;;;5.53;2.33;;;;;;;4.58;89.15;95782.69;5111571;28;20055;-68
2021/10/03 03:59:40;;;;;;;4.38;2.72;;;;;;;4.52;89.00;95779.00;5115984;28;20039;-68
2021/10/03 04:02:07;;;;;;;6.22;3.00;;;;;;;4.50;89.58;95780.13;5112131;28;20043;-67
2021/10/03 04:04:34;;;;;;;4.43;3.47;;;;;;;4.47;90.07;95783.84;5108160;28;20051;-68
2021/10/03 04:07:03;;;;;;;5.15;3.00;;;;;;;4.34;89.79;95774.09;5109374;28;20039;-68
2021/10/03 04:09:31;;;;;;;4.78;3.33;;;;;;;4.38;89.88;95788.25;5109326;28;20056;-68
2021/10/03 04:11:59;;;;;;;4.40;2.72;;;;;;;4.35;89.49;95788.56;5109063;27;20054;-68
2021/10/03 04:14:25;;;;;;;6.75;3.55;;;;;;;4.32;89.82;95783.78;5108054;28;20780;-68
2021/10/03 04:16:54;;;;;;;7.07;2.88;;;;;;;4.28;89.73;95782.47;5109374;28;20039;-68
2021/10/03 04:19:21;;;;;;;4.30;2.83;;;;;;;4.19;89.79;95773.19;5108770;28;20528;-68
2021/10/03 04:21:48;;;;;;;5.50;2.80;;;;;;;4.24;90.13;95781.22;5109747;27;20054;-68
2021/10/03 04:24:15;;;;;;;5.45;3.20;;;;;;;4.18;90.29;95776.75;5128821;27;20042;-68
2021/10/03 04:26:42;;;;;;;4.30;2.70;;;;;;;4.13;90.34;95768.69;5129079;27;20039;-67
2021/10/03 04:29:08;;;;;;;6.85;2.83;;;;;;;4.19;90.31;95783.50;5129274;27;20095;-68
2021/10/03 04:31:35;;;;;;;6.90;3.25;;;;;;;4.19;90.58;95786.06;5110734;27;20447;-67
2021/10/03 04:34:02;;;;;;;12.50;3.95;;;;;;;4.17;90.49;95796.53;5107920;28;20044;-68
2021/10/03 04:36:29;;;;;;;6.93;4.30;;;;;;;4.15;90.20;95787.38;5118253;27;20519;-67
2021/10/03 04:38:56;;;;;;;9.02;4.20;;;;;;;4.05;90.19;95781.59;5107550;28;20054;-68
2021/10/03 04:41:23;;;;;;;7.78;4.25;;;;;;;3.96;90.21;95779.06;5108914;27;20777;-68
2021/10/03 04:43:50;;;;;;;10.10;3.97;;;;;;;4.09;90.04;95790.63;5108763;28;20039;-68
2021/10/03 04:46:17;;;;;;;12.23;3.83;;;;;;;4.04;90.41;95785.19;5116257;27;20047;-68
2021/10/03 04:48:44;;;;;;;5.40;3.45;;;;;;;4.09;90.63;95798.34;5128202;27;20587;-68
2021/10/03 04:51:10;;;;;;;12.35;3.17;;;;;;;4.07;90.91;95800.28;5109213;27;20096;-68
2021/10/03 04:53:37;;;;;;;11.57;6.85;;;;;;;4.07;90.72;95806.28;5128568;27;20039;-68
2021/10/03 04:56:08;;;;;;;18.88;7.97;;;;;;;4.05;90.57;95803.03;5109702;27;20073;-68
2021/10/03 04:58:36;;;;;;;13.45;7.90;;;;;;;4.04;91.20;95808.38;5120285;27;20039;-68
2021/10/03 05:01:03;;;;;;;6.88;3.33;;;;;;;3.98;91.79;95823.53;5128229;27;20039;-67
2021/10/03 05:03:33;;;;;;;9.52;5.13;;;;;;;4.00;93.48;95823.38;5121936;27;20043;-67
2021/10/03 05:06:00;;;;;;;7.88;4.40;;;;;;;3.99;94.34;95814.81;5107983;27;20047;-67
2021/10/03 05:08:26;;;;;;;7.97;3.97;;;;;;;4.09;94.88;95839.59;5094309;27;20058;-67
2021/10/03 05:10:53;;;;;;;5.80;3.13;;;;;;;4.16;95.21;95836.22;5106864;27;20489;-67
2021/10/03 05:13:20;;;;;;;7.55;4.35;;;;;;;4.15;95.52;95828.63;5108171;27;20043;-67
2021/10/03 05:15:47;;;;;;;7.72;3.78;;;;;;;4.14;96.16;95832.19;5107499;28;20032;-67
2021/10/03 05:18:13;;;;;;;6.68;3.38;;;;;;;4.07;96.79;95826.06;5089929;28;20039;-67
2021/10/03 05:20:40;;;;;;;6.93;5.18;;;;;;;4.12;97.24;95834.13;5109560;27;20048;-67
2021/10/03 05:23:07;;;;;;;7.03;4.40;;;;;;;4.17;97.51;95837.00;5116560;27;20036;-67
2021/10/03 05:25:34;;;;;;;8.05;4.95;;;;;;;4.22;98.30;95830.38;5107947;28;20031;-68
2021/10/03 05:28:00;;;;;;;10.95;4.93;;;;;;;4.28;98.80;95839.22;5107791;27;20062;-67
2021/10/03 05:30:27;;;;;;;12.02;5.70;;;;;;;4.36;99.19;95841.78;5107695;28;20484;-67
2021/10/03 05:32:55;;;;;;;6.95;3.55;;;;;;;4.44;99.49;95850.47;5122352;27;20051;-67
2021/10/03 05:35:22;;;;;;;8.63;4.90;;;;;;;4.48;99.27;95849.16;5109498;27;20416;-67
2021/10/03 05:37:49;;;;;;;9.98;4.97;;;;;;;4.57;99.10;95837.81;5106490;27;20047;-67
2021/10/03 05:40:16;;;;;;;8.43;4.72;;;;;;;4.68;99.04;95845.22;5108061;28;20048;-67
2021/10/03 05:42:43;;;;;;;12.75;5.95;;;;;;;4.76;98.92;95847.72;5107209;28;20096;-67
2021/10/03 05:45:10;;;;;;;9.38;4.97;;;;;;;4.83;99.62;95842.69;5115328;27;20496;-68
2021/10/03 05:47:37;;;;;;;11.18;4.80;;;;;;;4.95;99.06;95840.53;5127583;27;20035;-67
2021/10/03 05:50:05;;;;;;;14.60;7.20;;;;;;;5.02;98.90;95845.81;5127579;27;20428;-68
2021/10/03 05:52:33;;;;;;;10.18;5.68;;;;;;;5.01;99.12;95839.84;5117617;27;20159;-68
2021/10/03 05:54:59;;;;;;;13.38;6.53;;;;;;;5.05;99.60;95830.78;5117255;27;20035;-68
2021/10/03 05:57:26;;;;;;;13.18;6.15;;;;;;;5.27;99.12;95839.50;5107008;27;20043;-67
2021/10/03 05:59:53;;;;;;;14.27;7.97;;;;;;;5.34;98.41;95845.59;5107347;28;20044;-68
2021/10/03 06:02:20;;;;;;;11.05;5.18;;;;;;;5.36;98.72;95835.88;5107225;28;20043;-68
2021/10/03 06:04:47;;;;;;;11.35;5.45;;;;;;;5.49;98.63;95845.66;5102669;28;20097;-67
2021/10/03 06:07:13;;;;;;;8.77;4.47;;;;;;;5.57;97.90;95838.81;5118319;27;20039;-68
2021/10/03 06:09:40;;;;;;;6.35;3.60;;;;;;;5.65;97.23;95830.97;5120862;27;20067;-68
2021/10/03 06:12:07;;;;;;;6.88;4.55;;;;;;;5.78;96.12;95851.03;5122282;27;20077;-68
2021/10/03 06:14:34;;;;;;;11.20;4.95;;;;;;;5.79;96.01;95850.88;5116167;27;20051;-68
2021/10/03 06:17:01;;;;;;;7.15;3.97;;;;;;;5.85;96.33;95839.84;5125660;27;20047;-68
2021/10/03 06:19:27;;;;;;;9.85;4.55;;;;;;;5.93;95.73;95838.97;5125238;27;20058;-67
2021/10/03 06:21:55;;;;;;;11.95;5.22;;;;;;;6.11;95.71;95841.22;5119856;27;20051;-67
2021/10/03 06:24:23;;;;;;;9.88;4.28;;;;;;;6.12;95.33;95832.47;5115650;27;20059;-68
2021/10/03 06:26:50;;;;;;;11.60;4.65;;;;;;;6.35;94.73;95841.94;5106082;27;20054;-68
2021/10/03 06:29:17;;;;;;;8.75;4.72;;;;;;;6.36;94.51;95833.22;5125568;27;20055;-68
2021/10/03 06:31:44;;;;;;;10.60;4.80;;;;;;;6.49;94.14;95828.19;5124983;27;20050;-68
2021/10/03 06:34:11;;;;;;;7.65;5.30;;;;;;;6.58;93.61;95832.28;5124765;27;20059;-68
2021/10/03 06:36:38;;;;;;;6.50;4.28;;;;;;;6.57;93.97;95825.53;5119139;27;20059;-68
2021/10/03 06:39:05;;;;;;;13.85;5.55;;;;;;;6.70;93.60;95830.84;5111470;27;20054;-68
2021/10/03 06:41:32;;;;;;;8.27;5.55;;;;;;;6.95;93.31;95843.47;5125414;27;20361;-68
2021/10/03 06:43:59;;;;;;;7.30;4.28;;;;;;;7.08;92.43;95841.00;5119617;27;20063;-68
2021/10/03 06:46:26;;;;;;;8.63;4.57;;;;;;;7.12;91.85;95827.69;5117536;27;20035;-68
2021/10/03 06:48:53;;;;;;;8.90;4.55;;;;;;;7.33;90.47;95840.66;5116560;27;20061;-68
2021/10/03 06:51:20;;;;;;;11.02;5.85;;;;;;;7.46;89.97;95835.56;5122472;27;20046;-68
2021/10/03 06:53:47;;;;;;;8.25;5.03;;;;;;;7.53;89.71;95842.63;5095101;27;20062;-68
2021/10/03 06:56:13;;;;;;;9.05;4.57;;;;;;;7.61;88.90;95842.47;5125487;27;20096;-68
2021/10/03 06:58:40;;;;;;;5.57;3.95;;;;;;;7.68;88.81;95845.91;5120727;27;20050;-68
2021/10/03 07:01:07;;;;;;;7.63;4.40;;;;;;;7.78;88.57;95843.03;5121461;27;20039;-68
2021/10/03 07:03:34;;;;;;;9.27;4.55;;;;;;;7.87;87.96;95841.88;5123496;27;20057;-68
2021/10/03 07:06:01;;;;;;;6.90;4.18;;;;;;;7.98;87.86;95853.53;5124580;27;20058;-68
2021/10/03 07:08:27;;;;;;;11.00;5.03;;;;;;;8.01;87.60;95834.97;5115679;27;20047;-68
2021/10/03 07:10:54;;;;;;;9.25;4.15;;;;;;;8.23;88.07;95841.72;5121066;27;20075;-68
2021/10/03 07:13:21;;;;;;;5.55;3.40;;;;;;;8.38;86.29;95844.19;5114024;27;20496;-68
2021/10/03 07:15:48;;;;;;;7.75;4.30;;;;;;;8.56;86.73;95841.09;5123970;27;20043;-67
2021/10/03 07:18:14;;;;;;;7.93;4.32;;;;;;;8.71;87.03;95837.56;5124788;27;20462;-68
2021/10/03 07:20:41;;;;;;;11.23;4.53;;;;;;;8.80;86.40;95836.41;5118708;27;20050;-68
2021/10/03 07:23:08;;;;;;;7.22;4.80;;;;;;;9.01;85.85;95843.28;5093816;28;20105;-67
2021/10/03 07:25:35;;;;;;;8.25;4.45;;;;;;;9.14;84.63;95832.91;5123665;27;20499;-67
2021/10/03 07:28:02;;;;;;;6.15;3.63;;;;;;;9.36;82.86;95830.13;5121455;28;20032;-68
2021/10/03 07:30:29;;;;;;;5.75;3.47;;;;;;;9.59;81.28;95845.38;5108429;28;20055;-67
2021/10/03 07:32:55;;;;;;;5.13;3.58;;;;;;;9.75;81.74;95844.97;5109856;28;20052;-67
2021/10/03 07:35:22;;;;;;;6.38;3.85;;;;;;;9.90;80.85;95846.56;5107554;28;20051;-67
2021/10/03 07:37:49;;;;;;;6.78;3.75;;;;;;;10.09;80.17;95835.31;5102239;28;20040;-67
2021/10/03 07:40:16;;;;;;;5.65;3.53;;;;;;;10.34;80.56;95850.34;5113068;27;20059;-68
2021/10/03 07:42:44;;;;;;;8.65;3.90;;;;;;;10.30;78.85;95851.72;5119531;27;20042;-68
2021/10/03 07:45:11;;;;;;;17.77;5.13;;;;;;;10.42;78.19;95839.69;5119110;27;20065;-68
2021/10/03 07:47:38;;;;;;;8.30;3.08;;;;;;;10.48;76.92;95841.50;5128147;27;20427;-68
2021/10/03 07:50:06;;;;;;;5.35;2.90;;;;;;;10.66;77.21;95850.44;5125451;27;20055;-67
2021/10/03 07:52:33;;;;;;;10.15;3.08;;;;;;;10.83;76.28;95854.19;5115274;27;20048;-68
2021/10/03 07:55:00;;;;;;;3.58;2.67;;;;;;;11.00;74.32;95851.09;5127345;27;20093;-68
2021/10/03 07:57:27;;;;;;;5.72;3.60;;;;;;;11.20;73.83;95862.25;5117226;27;20043;-68
2021/10/03 07:59:53;;;;;;;5.72;3.53;;;;;;;11.40;72.57;95863.94;5116089;27;20509;-68
2021/10/03 08:02:20;;;;;;;7.82;2.78;;;;;;;11.55;72.77;95864.41;5111514;27;20459;-68
2021/10/03 08:04:47;;;;;;;4.75;2.65;;;;;;;11.52;71.47;95841.34;5120239;27;20127;-68
2021/10/03 08:07:14;;;;;;;6.72;2.92;;;;;;;11.81;71.85;95852.19;5122750;27;20043;-68
2021/10/03 08:09:42;;;;;;;4.65;2.55;;;;;;;12.01;69.78;95858.09;5121305;27;20051;-68
2021/10/03 08:12:09;;;;;;;7.18;3.00;;;;;;;12.18;71.26;95857.53;5114189;27;20051;-68
2021/10/03 08:14:36;;;;;;;5.07;3.15;;;;;;;12.38;68.18;95852.91;5112432;27;20046;-68
2021/10/03 08:17:04;;;;;;;4.57;2.80;;;;;;;12.33;67.98;95847.53;5117576;27;20130;-68
2021/10/03 08:19:30;;;;;;;4.20;2.67;;;;;;;12.46;67.87;95848.41;5127255;27;20043;-68
2021/10/03 08:21:57;;;;;;;4.75;3.05;;;;;;;12.58;67.26;95851.91;5124856;27;20085;-68
2021/10/03 08:24:24;;;;;;;3.13;2.35;;;;;;;12.54;67.29;95851.53;5103104;27;20115;-68
2021/10/03 08:26:52;;;;;;;5.30;3.58;;;;;;;12.75;67.14;95858.13;5118772;27;20437;-68
2021/10/03 08:29:18;;;;;;;4.68;2.10;;;;;;;12.99;66.28;95853.03;5109094;27;20054;-68
2021/10/03 08:31:45;;;;;;;3.55;2.72;;;;;;;13.11;64.58;95840.81;5122776;27;20058;-68
2021/10/03 08:34:13;;;;;;;5.43;3.05;;;;;;;13.19;63.73;95850.94;5127393;27;20067;-68
2021/10/03 08:36:40;;;;;;;4.57;2.97;;;;;;;13.40;63.77;95848.88;5125241;27;20039;-68
2021/10/03 08:39:06;;;;;;;4.07;2.08;;;;;;;13.55;61.42;95846.63;5114417;27;20042;-68
2021/10/03 08:41:33;;;;;;;5.07;2.83;;;;;;;13.65;61.93;95850.53;5122682;27;20055;-68
2021/10/03 08:44:00;;;;;;;3.42;2.20;;;;;;;13.74;62.48;95841.34;5127493;27;20094;-68
2021/10/03 08:46:28;;;;;;;4.10;3.13;;;;;;;13.59;60.90;95820.81;5124359;27;20054;-68
2021/10/03 08:48:56;;;;;;;4.63;2.28;;;;;;;13.98;62.98;95833.50;5121109;27;20524;-68
2021/10/03 08:51:24;;;;;;;4.32;2.65;;;;;;;14.29;60.56;95840.22;5124278;27;20058;-68
2021/10/03 08:53:51;;;;;;;3.95;2.17;;;;;;;14.45;58.99;95808.06;5116647;27;20121;-68
2021/10/03 08:56:18;;;;;;;3.45;2.28;;;;;;;14.85;57.31;95840.59;5127381;27;20051;-69
2021/10/03 08:58:45;;;;;;;4.22;2.42;;;;;;;14.91;55.84;95818.69;5126500;27;20405;-68
2021/10/03 09:01:13;;;;;;;3.45;2.33;;;;;;;15.15;58.78;95836.97;5115084;27;20092;-68
2021/10/03 09:03:41;;;;;;;5.40;1.92;;;;;;;15.26;55.04;95822.97;5117525;27;20501;-68
2021/10/03 09:06:09;;;;;;;4.15;2.33;;;;;;;15.69;55.22;95826.84;5112295;27;20401;-68
2021/10/03 09:08:42;;;;;;;4.68;3.10;;;;;;;15.82;53.46;95805.53;5113821;27;20040;-69
2021/10/03 09:11:13;;;;;;;9.10;2.30;;;;;;;16.36;53.39;95823.38;5110438;27;20044;-69
2021/10/03 09:13:42;;;;;;;7.25;3.00;;;;;;;16.56;51.16;95814.97;5119552;27;20035;-68
2021/10/03 09:16:10;;;;;;;4.88;2.20;;;;;;;16.78;51.12;95816.78;5126446;27;20038;-69
2021/10/03 09:18:41;;;;;;;7.68;2.55;;;;;;;16.65;49.53;95812.69;5125878;27;20122;-68
2021/10/03 09:21:10;;;;;;;5.30;2.90;;;;;;;16.84;48.68;95805.31;5125192;27;20051;-68
2021/10/03 09:23:38;;;;;;;5.07;2.25;;;;;;;16.86;48.29;95805.09;5120004;27;20039;-68
2021/10/03 09:26:11;;;;;;;2.45;1.65;;;;;;;17.04;48.59;95807.38;5126726;27;20089;-68
2021/10/03 09:28:39;;;;;;;4.80;1.85;;;;;;;17.41;45.12;95797.97;5126420;27;20522;-69
2021/10/03 09:31:11;;;;;;;8.52;1.90;;;;;;;17.96;45.96;95812.66;5122963;27;20035;-68
2021/10/03 09:33:45;;;;;;;4.35;2.15;;;;;;;18.42;43.69;95807.69;5126021;27;20481;-69
2021/10/03 09:36:17;;;;;;;4.72;1.48;;;;;;;18.78;42.79;95799.91;5114821;27;20088;-69
2021/10/03 09:38:45;;;;;;;6.03;3.17;;;;;;;18.93;42.48;95795.75;5116861;27;20047;-69
2021/10/03 09:41:12;;;;;;;3.08;1.92;;;;;;;19.13;41.92;95779.97;5121347;27;20045;-68
2021/10/03 09:43:42;;;;;;;5.35;2.38;;;;;;;19.55;41.12;95792.13;5125508;27;20424;-68
2021/10/03 09:46:38;;;;;;;3.28;1.70;;;;;;;19.90;41.05;95782.66;5107994;27;20043;-69
2021/10/03 09:49:07;;;;;;;3.60;2.25;;;;;;;20.08;40.85;95788.41;5115546;27;20035;-69
2021/10/03 09:51:36;;;;;;;3.65;1.58;;;;;;;20.34;41.79;95787.31;5120795;27;20552;-69
2021/10/03 09:54:05;;;;;;;2.63;1.77;;;;;;;20.62;39.20;95787.78;5117509;27;20097;-69
2021/10/03 09:56:32;;;;;;;7.30;3.13;;;;;;;20.41;38.35;95787.03;5121496;27;20039;-69
2021/10/03 09:59:04;;;;;;;2.95;1.77;;;;;;;20.77;38.57;95785.06;5117252;27;20078;-68
2021/10/03 10:01:38;;;;;;;3.13;2.00;;;;;;;21.14;36.93;95783.00;5106899;27;20091;-69
2021/10/03 10:04:09;;;;;;;3.17;1.73;;;;;;;20.49;39.01;95756.56;5124790;27;20047;-69
2021/10/03 10:06:36;;;;;;;3.63;1.58;;;;;;;21.04;36.79;95767.97;5112122;27;20508;-69
2021/10/03 10:09:16;;;;;;;2.63;1.80;;;;;;;21.35;37.34;95768.53;5123858;27;20050;-69
2021/10/03 10:11:54;;;;;;;4.53;2.45;;;;;;;21.47;35.48;95765.59;5122947;27;20061;-68
2021/10/03 10:14:48;;;;;;;2.80;2.05;;;;;;;21.79;35.22;95763.47;5123306;27;20062;-69
2021/10/03 10:17:36;;;;;;;3.00;2.10;;;;;;;22.09;35.30;95755.22;5122669;27;20104;-69
2021/10/03 10:20:18;;;;;;;1.98;1.60;;;;;;;22.55;34.07;95745.97;5116659;27;20409;-69
2021/10/03 10:23:03;;;;;;;1.98;1.58;;;;;;;22.86;33.07;95741.03;5122050;27;20443;-69
2021/10/03 10:25:57;;;;;;;2.70;1.70;;;;;;;23.45;32.64;95741.53;5125953;27;20038;-69
2021/10/03 10:28:27;;;;;;;1.83;1.33;;;;;;;23.88;31.96;95737.13;5116023;27;20059;-69
2021/10/03 10:31:12;;;;;;;4.07;1.77;;;;;;;24.29;30.92;95731.03;5125241;27;20043;-69
2021/10/03 10:34:07;;;;;;;3.53;1.35;;;;;;;24.36;30.45;95736.75;5124897;27;20051;-69
2021/10/03 10:36:51;;;;;;;2.08;1.55;;;;;;;24.13;31.46;95727.88;5115802;27;20043;-69
2021/10/03 10:39:19;;;;;;;12.00;5.37;;;;;;;23.61;33.92;95722.69;5099432;28;20490;-69
2021/10/03 10:41:49;;;;;;;3.72;2.25;;;;;;;23.58;32.52;95717.94;5091234;27;20039;-68
2021/10/03 10:44:37;;;;;;;2.63;1.70;;;;;;;23.65;30.94;95713.81;5118118;27;20054;-68
2021/10/03 10:47:16;;;;;;;4.93;1.55;;;;;;;23.43;32.96;95719.78;5124069;27;20580;-68
2021/10/03 10:49:49;;;;;;;2.97;1.83;;;;;;;23.62;32.33;95713.59;5122164;27;20066;-68
2021/10/03 10:52:19;;;;;;;5.13;2.83;;;;;;;22.74;32.99;95721.31;5108300;27;20051;-68
2021/10/03 10:55:09;;;;;;;2.00;1.63;;;;;;;23.58;30.97;95723.25;5111816;27;20413;-69
2021/10/03 10:57:48;;;;;;;2.15;1.52;;;;;;;23.63;33.41;95710.66;5107397;27;20071;-68
2021/10/03 11:00:19;;;;;;;8.40;3.55;;;;;;;23.38;33.32;95705.78;5110852;27;20047;-68
2021/10/03 11:02:57;;;;;;;4.10;1.63;;;;;;;23.56;32.63;95696.97;5112715;27;20045;-68
2021/10/03 11:05:42;;;;;;;2.60;1.70;;;;;;;23.80;31.15;95698.69;5108253;27;20035;-69
2021/10/03 11:08:10;;;;;;;;;;;;;;;23.51;31.12;95701.56;5107584;27;20032;-68
2021/10/03 11:11:01;;;;;;;2.90;1.88;;;;;;;24.79;29.25;95697.28;5106648;27;19924;-69
2021/10/03 11:13:47;;;;;;;1.80;1.38;;;;;;;24.53;29.84;95682.94;5110287;27;20055;-69
2021/10/03 11:16:24;;;;;;;3.45;1.10;;;;;;;24.85;28.28;95687.31;5111540;27;20047;-69
2021/10/03 11:19:16;;;;;;;2.22;1.38;;;;;;;25.49;28.26;95686.34;5105773;28;20050;-69
2021/10/03 11:21:45;;;;;;;3.78;1.27;;;;;;;25.23;28.76;95678.97;5106145;28;20436;-68
2021/10/03 11:24:18;;;;;;;2.25;1.38;;;;;;;25.60;27.39;95677.00;5126257;27;20042;-69
2021/10/03 11:26:56;;;;;;;10.07;1.88;;;;;;;25.76;27.66;95656.81;5126152;28;20043;-69
2021/10/03 11:29:32;;;;;;;2.28;1.45;;;;;;;25.47;26.50;95675.22;5104579;28;20032;-69
2021/10/03 11:32:01;;;;;;;3.03;1.17;;;;;;;26.15;26.37;95653.69;5105872;28;20036;-69
2021/10/03 11:34:35;;;;;;;2.17;1.52;;;;;;;25.03;26.13;95668.75;5115121;28;20523;-68
2021/10/03 11:37:12;;;;;;;1.80;1.10;;;;;;;25.25;25.56;95665.34;5114648;28;20062;-68
2021/10/03 11:39:50;;;;;;;3.67;1.67;;;;;;;23.78;28.00;95637.78;5106567;28;20035;-68
2021/10/03 11:42:37;;;;;;;1.73;0.90;;;;;;;24.39;27.85;95656.31;5112375;28;20039;-68
2021/10/03 11:45:10;;;;;;;3.45;2.03;;;;;;;24.34;25.97;95659.06;5108829;28;20057;-68
2021/10/03 11:47:55;;;;;;;2.80;1.17;;;;;;;24.47;26.52;95658.28;5109681;28;20663;-68
2021/10/03 11:50:26;;;;;;;2.17;1.00;;;;;;;25.37;25.44;95658.38;5110428;28;20050;-68